首页
METAR-TAF:

METAR-TAF

机场 :

易卜拉欣·納西爾國際機場

馬累, 马尔代夫

纬度: 04-12N, 经度: 073-32E, 海拔: 2米

当前天气观测

该预报发布于1小时和16分钟前的14:00 UTC
风速9节,风向西
温度 30°C
湿度 79%
气压 1011 hPa
能见度10公里或以上
散云层高于1800英尺
少量云层高于1900英尺, 积雨云.
散云层高于11000英尺
多云层高于25000英尺

METAR: VRMM 181400Z 27009KT 9999 SCT018 FEW019CB SCT110 BKN250 30/26 Q1011 CB NNW TEMPO 5000 -TSRA

时间: 20:16 (15:16 UTC)

预报

该预报发布于4小时和16分钟前的11:00 UTC
预报有效从18日的 12点(UTC)到 19日的 18点(UTC)
风速9节,风向西转西南
能见度10公里或以上
少量云层高于1700英尺, 塔状积云.
多云层高于11000英尺
短暂存在
从 18日的 12点(UTC)到 18日的 18点(UTC)
能見度: 3000
少量云层高于1700英尺, 积雨云.
多云层高于10000英尺
雷暴, 雨

TAF: VRMM 181100Z 1812/1918 25009KT 9999 FEW017TCU BKN110 TEMPO 1812/1818 3000 TSRA FEW017CB BKN100

超过4000个机场的气象观测和天气预报(METAR&TAF报告)。

可查询的气象台以黄色和红色小点在地图上表示。

将鼠标移到小点上方,可查看气象台名称。

然后点击查看天气观测和预报。

如需切换地图:点击带黑十字的绿色按钮放大地图;点击带横线的绿色按钮缩小地图;或者点击绿色箭头查看邻近地区的地图。


METAR-TAF: